Lady Mary — WCY4834 — position and weather

sailwx.info

Track history (hours):
 
Tides and Currents Weather Stations Pressure Air Temp Water Temp Dewpoint Dewpoint Depression Visibility Wind Speed Wind Dir Waves Ship Positions

Lady Mary

Owner: BLACKMAN, JOHN H, SEATTLE, WA. More information available from US FCC via Universal Licensing System and Coast Guard Vessel Documentation Center.

Last reported at 2018-Feb-21 20:21 UTC. Time now 2018-Feb-22 03:06 UTC.
Position N 47°36' W 122°20'.

Length 26 m.

Type: Passenger vessel. MMSI: 367013060.

Date/timePositionNaut miles runAvg speedWind from/ knotsBaromVisibWave heightAir tempDewpointWater temp
2018-Feb-21 20:21N 47°36' W 122°20'0 0.0
2018-Feb-21 19:57N 47°36' W 122°20'0 0.0
2018-Feb-21 06:27N 47°36' W 122°20'0 0.0
2018-Feb-21 04:39N 47°36' W 122°20'0 0.0
2018-Feb-21 04:09N 47°36' W 122°20'0 0.0
2018-Feb-21 02:01N 47°36' W 122°20'0 0.0
2018-Feb-21 01:58N 47°36' W 122°20'0 0.0
2018-Feb-21 01:30N 47°36' W 122°20'0 0.0
2018-Feb-21 00:56N 47°36' W 122°20'0 0.0
2018-Feb-21 00:30N 47°36' W 122°20'0 0.0
2018-Feb-20 23:58N 47°36' W 122°20'0 0.0
2018-Feb-20 01:10N 47°36' W 122°20'0 0.0
2018-Feb-20 00:55N 47°36' W 122°20'0 0.0
2018-Feb-20 00:28N 47°36' W 122°20'0 0.0
2018-Feb-19 23:58N 47°36' W 122°20'0 0.0
2018-Feb-19 23:24N 47°36' W 122°20'0 0.0
2018-Feb-19 22:54N 47°36' W 122°20'0 0.0
2018-Feb-19 22:26N 47°36' W 122°20'0 0.0
2018-Feb-19 21:49N 47°36' W 122°20'0 0.0
2018-Feb-19 21:16N 47°36' W 122°20'0 0.0
2018-Feb-19 21:00N 47°36' W 122°20'0 0.0
2018-Feb-19 20:30N 47°36' W 122°20'0 0.0
2018-Feb-19 20:00N 47°36' W 122°20'0 0.0
2018-Feb-19 19:30N 47°36' W 122°20'0 0.0
2018-Feb-19 19:00N 47°36' W 122°20'0 0.0
2018-Feb-19 18:30N 47°36' W 122°20'0 0.0
2018-Feb-19 17:58N 47°36' W 122°20'0 0.0
2018-Feb-19 17:23N 47°36' W 122°20'0 0.0
2018-Feb-19 16:58N 47°36' W 122°20'0 0.0
2018-Feb-19 16:30N 47°36' W 122°20'0 0.0
2018-Feb-19 15:37N 47°36' W 122°20'0 0.0
2018-Feb-19 15:19N 47°36' W 122°20'0 0.0
2018-Feb-19 11:36N 47°36' W 122°20'0 0.0
2018-Feb-19 11:23N 47°36' W 122°20'0 0.0
2018-Feb-19 10:52N 47°36' W 122°20'0 0.0
2018-Feb-19 10:27N 47°36' W 122°20'0 0.0
2018-Feb-19 10:00N 47°36' W 122°20'0 0.0
2018-Feb-19 07:11N 47°36' W 122°20'0 0.0
2018-Feb-19 04:16N 47°36' W 122°20'0 0.0
2018-Feb-19 01:47N 47°36' W 122°20'0 0.0
2018-Feb-19 01:30N 47°36' W 122°20'0 0.0
2018-Feb-18 23:33N 47°36' W 122°20'0 0.0
2018-Feb-18 22:09N 47°36' W 122°20'0 0.0
2018-Feb-18 21:59N 47°36' W 122°20'0 0.0
2018-Feb-18 21:29N 47°36' W 122°20'0 0.0
2018-Feb-18 21:00N 47°36' W 122°20'0 0.0
2018-Feb-18 20:29N 47°36' W 122°20'0 0.0
2018-Feb-18 19:58N 47°36' W 122°20'0 0.0
2018-Feb-18 12:16N 47°36' W 122°20'0 0.0
2018-Feb-18 11:48N 47°36' W 122°20'0 0.0
2018-Feb-18 11:03N 47°36' W 122°20'0 0.0
2018-Feb-18 10:53N 47°36' W 122°20'0 0.0
2018-Feb-18 10:31N 47°36' W 122°20'0 0.0
2018-Feb-18 09:29N 47°36' W 122°20'0 0.0
2018-Feb-18 08:52N 47°36' W 122°20'0 0.0
2018-Feb-18 08:24N 47°36' W 122°20'0 0.0
2018-Feb-18 07:12N 47°36' W 122°20'0 0.0
2018-Feb-18 05:33N 47°36' W 122°20'0 0.0
2018-Feb-18 05:26N 47°36' W 122°20'0 0.0
2018-Feb-18 02:35N 47°36' W 122°20'0 0.0
2018-Feb-18 02:28N 47°36' W 122°20'0 0.0
2018-Feb-18 02:00N 47°36' W 122°20'0 0.0
2018-Feb-18 01:29N 47°36' W 122°20'0 0.0
2018-Feb-18 01:00N 47°36' W 122°20'0 0.0
2018-Feb-17 21:12N 47°36' W 122°20'0 1.4
2018-Feb-17 21:00N 47°36' W 122°21'2 3.3
2018-Feb-17 20:30N 47°37' W 122°23'2 0.2
2018-Feb-17 14:04N 47°36' W 122°20'0 0.0
2018-Feb-17 13:58N 47°36' W 122°20'0 0.0
2018-Feb-16 21:38N 47°36' W 122°20'0 0.0
2018-Feb-16 21:28N 47°36' W 122°20'0 0.0
2018-Feb-15 18:01N 47°36' W 122°20'0 2.3
2018-Feb-15 17:59N 47°36' W 122°21'4 8.2
2018-Feb-15 17:30N 47°38' W 122°25'2 3.7
2018-Feb-15 17:00N 47°40' W 122°24'0 0.8
2018-Feb-15 16:30N 47°40' W 122°23'1 0.0
2018-Feb-13 23:51N 47°39' W 122°23'0 0.2
2018-Feb-13 23:30N 47°39' W 122°23'1 2.6
2018-Feb-13 23:00N 47°40' W 122°24'2 4.4
2018-Feb-13 22:30N 47°38' W 122°25'3 1.0
2018-Feb-13 19:17N 47°36' W 122°20'0 0.0
2018-Feb-13 18:53N 47°36' W 122°20'0 1.3
2018-Feb-13 18:30N 47°36' W 122°21'0 0.0
2018-Feb-12 23:55N 47°36' W 122°20'1 2.0
2018-Feb-12 23:29N 47°37' W 122°22'  
Track history (hours):
 
Tides and Currents Weather Stations Pressure Air Temp Water Temp Dewpoint Dewpoint Depression Visibility Wind Speed Wind Dir Waves Ship Positions

Lady Mary

Owner: BLACKMAN, JOHN H, SEATTLE, WA. More information available from US FCC via Universal Licensing System and Coast Guard Vessel Documentation Center.

Last reported at 2018-Feb-21 20:21 UTC. Time now 2018-Feb-22 03:06 UTC.
Position N 47°36' W 122°20'.

Length 26 m.

Type: Passenger vessel. MMSI: 367013060.

Date/timePositionNaut miles runAvg speedWind from/ knotsBaromVisibWave heightAir tempDewpointWater temp
2018-Feb-21 20:21N 47°36' W 122°20'0 0.0
2018-Feb-21 19:57N 47°36' W 122°20'0 0.0
2018-Feb-21 06:27N 47°36' W 122°20'0 0.0
2018-Feb-21 04:39N 47°36' W 122°20'0 0.0
2018-Feb-21 04:09N 47°36' W 122°20'0 0.0
2018-Feb-21 02:01N 47°36' W 122°20'0 0.0
2018-Feb-21 01:58N 47°36' W 122°20'0 0.0
2018-Feb-21 01:30N 47°36' W 122°20'0 0.0
2018-Feb-21 00:56N 47°36' W 122°20'0 0.0
2018-Feb-21 00:30N 47°36' W 122°20'0 0.0
2018-Feb-20 23:58N 47°36' W 122°20'0 0.0
2018-Feb-20 01:10N 47°36' W 122°20'0 0.0
2018-Feb-20 00:55N 47°36' W 122°20'0 0.0
2018-Feb-20 00:28N 47°36' W 122°20'0 0.0
2018-Feb-19 23:58N 47°36' W 122°20'0 0.0
2018-Feb-19 23:24N 47°36' W 122°20'0 0.0
2018-Feb-19 22:54N 47°36' W 122°20'0 0.0
2018-Feb-19 22:26N 47°36' W 122°20'0 0.0
2018-Feb-19 21:49N 47°36' W 122°20'0 0.0
2018-Feb-19 21:16N 47°36' W 122°20'0 0.0
2018-Feb-19 21:00N 47°36' W 122°20'0 0.0
2018-Feb-19 20:30N 47°36' W 122°20'0 0.0
2018-Feb-19 20:00N 47°36' W 122°20'0 0.0
2018-Feb-19 19:30N 47°36' W 122°20'0 0.0
2018-Feb-19 19:00N 47°36' W 122°20'0 0.0
2018-Feb-19 18:30N 47°36' W 122°20'0 0.0
2018-Feb-19 17:58N 47°36' W 122°20'0 0.0
2018-Feb-19 17:23N 47°36' W 122°20'0 0.0
2018-Feb-19 16:58N 47°36' W 122°20'0 0.0
2018-Feb-19 16:30N 47°36' W 122°20'0 0.0
2018-Feb-19 15:37N 47°36' W 122°20'0 0.0
2018-Feb-19 15:19N 47°36' W 122°20'0 0.0
2018-Feb-19 11:36N 47°36' W 122°20'0 0.0
2018-Feb-19 11:23N 47°36' W 122°20'0 0.0
2018-Feb-19 10:52N 47°36' W 122°20'0 0.0
2018-Feb-19 10:27N 47°36' W 122°20'0 0.0
2018-Feb-19 10:00N 47°36' W 122°20'0 0.0
2018-Feb-19 07:11N 47°36' W 122°20'0 0.0
2018-Feb-19 04:16N 47°36' W 122°20'0 0.0
2018-Feb-19 01:47N 47°36' W 122°20'0 0.0
2018-Feb-19 01:30N 47°36' W 122°20'0 0.0
2018-Feb-18 23:33N 47°36' W 122°20'0 0.0
2018-Feb-18 22:09N 47°36' W 122°20'0 0.0
2018-Feb-18 21:59N 47°36' W 122°20'0 0.0
2018-Feb-18 21:29N 47°36' W 122°20'0 0.0
2018-Feb-18 21:00N 47°36' W 122°20'0 0.0
2018-Feb-18 20:29N 47°36' W 122°20'0 0.0
2018-Feb-18 19:58N 47°36' W 122°20'0 0.0
2018-Feb-18 12:16N 47°36' W 122°20'0 0.0
2018-Feb-18 11:48N 47°36' W 122°20'0 0.0
2018-Feb-18 11:03N 47°36' W 122°20'0 0.0
2018-Feb-18 10:53N 47°36' W 122°20'0 0.0
2018-Feb-18 10:31N 47°36' W 122°20'0 0.0
2018-Feb-18 09:29N 47°36' W 122°20'0 0.0
2018-Feb-18 08:52N 47°36' W 122°20'0 0.0
2018-Feb-18 08:24N 47°36' W 122°20'0 0.0
2018-Feb-18 07:12N 47°36' W 122°20'0 0.0
2018-Feb-18 05:33N 47°36' W 122°20'0 0.0
2018-Feb-18 05:26N 47°36' W 122°20'0 0.0
2018-Feb-18 02:35N 47°36' W 122°20'0 0.0
2018-Feb-18 02:28N 47°36' W 122°20'0 0.0
2018-Feb-18 02:00N 47°36' W 122°20'0 0.0
2018-Feb-18 01:29N 47°36' W 122°20'0 0.0
2018-Feb-18 01:00N 47°36' W 122°20'0 0.0
2018-Feb-17 21:12N 47°36' W 122°20'0 1.4
2018-Feb-17 21:00N 47°36' W 122°21'2 3.3
2018-Feb-17 20:30N 47°37' W 122°23'2 0.2
2018-Feb-17 14:04N 47°36' W 122°20'0 0.0
2018-Feb-17 13:58N 47°36' W 122°20'0 0.0
2018-Feb-16 21:38N 47°36' W 122°20'0 0.0
2018-Feb-16 21:28N 47°36' W 122°20'0 0.0
2018-Feb-15 18:01N 47°36' W 122°20'0 2.3
2018-Feb-15 17:59N 47°36' W 122°21'4 8.2
2018-Feb-15 17:30N 47°38' W 122°25'2 3.7
2018-Feb-15 17:00N 47°40' W 122°24'0 0.8
2018-Feb-15 16:30N 47°40' W 122°23'1 0.0
2018-Feb-13 23:51N 47°39' W 122°23'0 0.2
2018-Feb-13 23:30N 47°39' W 122°23'1 2.6
2018-Feb-13 23:00N 47°40' W 122°24'2 4.4
2018-Feb-13 22:30N 47°38' W 122°25'3 1.0
2018-Feb-13 19:17N 47°36' W 122°20'0 0.0
2018-Feb-13 18:53N 47°36' W 122°20'0 1.3
2018-Feb-13 18:30N 47°36' W 122°21'0 0.0
2018-Feb-12 23:55N 47°36' W 122°20'1 2.0
2018-Feb-12 23:29N 47°37' W 122°22'  

Dump ship's entire track history